createdAt,value
2023-03-17T00:03:35.870Z,101520.59
2023-03-17T00:08:43.004Z,101512.91
2023-03-17T00:13:49.395Z,101512.09
2023-03-17T00:18:56.828Z,101515.66
2023-03-17T00:24:03.952Z,101518.94
2023-03-17T00:29:16.049Z,101532.13
2023-03-17T00:34:22.040Z,101529.94
2023-03-17T00:39:25.565Z,101528.56
2023-03-17T00:44:34.847Z,101532.13
2023-03-17T00:49:40.571Z,101540.06
2023-03-17T00:54:46.975Z,101533.22
2023-03-17T01:00:09.057Z,101521.69
2023-03-17T01:05:14.018Z,101521.69
2023-03-17T01:10:20.282Z,101513.75
2023-03-17T01:15:33.673Z,101515.13
2023-03-17T01:20:39.464Z,101524.44
2023-03-17T01:25:45.064Z,101520.06
2023-03-17T01:30:50.993Z,101508.53
2023-03-17T01:35:55.715Z,101497.56
2023-03-17T01:41:04.272Z,101499.75
2023-03-17T01:46:38.343Z,101495.38
2023-03-17T01:51:56.576Z,101503.59
2023-03-17T01:57:28.379Z,101503.03
2023-03-17T02:02:39.252Z,101493.44
2023-03-17T02:07:56.499Z,101498.66
2023-03-17T02:13:11.278Z,101485.44
2023-03-17T02:20:28.344Z,101479.69
2023-03-17T02:25:41.730Z,101473.38
2023-03-17T02:30:46.910Z,101473.38
2023-03-17T02:36:01.234Z,101472.56
2023-03-17T02:41:06.869Z,101475.03
2023-03-17T02:46:17.451Z,101465.72
2023-03-17T02:51:22.105Z,101467.91
2023-03-17T02:56:33.021Z,101462.41
2023-03-17T03:01:43.345Z,101463.22
2023-03-17T03:06:49.161Z,101455.81
2023-03-17T03:11:55.032Z,101450.88
2023-03-17T03:17:04.925Z,101454.13
2023-03-17T03:22:15.803Z,101429.22
2023-03-17T03:27:26.702Z,101432.25
2023-03-17T03:32:30.558Z,101434.44
2023-03-17T03:37:39.123Z,101429.78
2023-03-17T03:42:44.120Z,101428.97
2023-03-17T03:47:48.804Z,101445.97
2023-03-17T03:53:04.821Z,101442.69
2023-03-17T03:58:14.237Z,101445.41
2023-03-17T04:03:21.833Z,101445.16
2023-03-17T04:08:27.134Z,101444.31
2023-03-17T04:13:32.880Z,101447.06
2023-03-17T04:18:37.266Z,101444.31
2023-03-17T04:23:47.716Z,101450.91
2023-03-17T04:28:55.075Z,101451.44
2023-03-17T04:34:03.035Z,101447.88
2023-03-17T04:39:06.188Z,101459.38
2023-03-17T04:44:15.160Z,101465.69
2023-03-17T04:49:24.220Z,101463.22
2023-03-17T04:54:29.467Z,101466.22
2023-03-17T04:59:35.276Z,101461.25
2023-03-17T05:12:49.789Z,101467.34
2023-03-17T05:17:51.972Z,101458.56
2023-03-17T05:22:53.880Z,101467.06
2023-03-17T05:27:56.173Z,101464.59
2023-03-17T05:32:58.853Z,101461.31
2023-03-17T05:38:01.043Z,101448.72
2023-03-17T05:43:03.543Z,101449.25
2023-03-17T05:48:06.386Z,101461.31
2023-03-17T05:53:08.874Z,101464.03
2023-03-17T05:58:10.880Z,101453.09
2023-03-17T06:03:13.793Z,101453.09
2023-03-17T06:08:15.885Z,101453.63
2023-03-17T06:13:19.021Z,101452.53
2023-03-17T06:18:21.270Z,101448.72
2023-03-17T06:23:23.895Z,101443.78
2023-03-17T06:28:26.181Z,101447.88
2023-03-17T06:33:32.757Z,101443.78
2023-03-17T06:38:35.193Z,101452.00
2023-03-17T06:43:37.494Z,101457.47
2023-03-17T06:48:39.465Z,101461.03
2023-03-17T06:53:41.627Z,101461.31
2023-03-17T06:58:43.557Z,101472.28
2023-03-17T07:03:45.684Z,101466.81
2023-03-17T07:08:47.861Z,101477.78
2023-03-17T07:13:51.100Z,101500.22
2023-03-17T07:18:53.465Z,101503.53
2023-03-17T07:23:56.403Z,101506.81
2023-03-17T07:29:01.008Z,101510.94
2023-03-17T07:34:06.821Z,101512.03
2023-03-17T07:39:11.480Z,101516.19
2023-03-17T07:44:14.150Z,101515.38
2023-03-17T07:49:17.256Z,101496.47
2023-03-17T07:54:19.451Z,101505.22
2023-03-17T07:59:21.885Z,101508.25
2023-03-17T08:04:27.259Z,101517.88
2023-03-17T08:09:32.247Z,101525.94
2023-03-17T08:14:37.748Z,101534.59
2023-03-17T08:19:40.403Z,101520.63
2023-03-17T08:24:43.730Z,101533.78
2023-03-17T08:29:47.217Z,101538.63
2023-03-17T08:34:55.615Z,101527.84
2023-03-17T08:39:58.228Z,101535.81
2023-03-17T08:45:00.470Z,101531.25
2023-03-17T08:50:02.563Z,101533.06
2023-03-17T08:55:05.175Z,101526.84
2023-03-17T09:00:11.181Z,101519.94
2023-03-17T09:05:16.099Z,101529.56
2023-03-17T09:10:22.667Z,101539.06
2023-03-17T09:15:24.863Z,101536.59
2023-03-17T09:20:27.138Z,101546.25
2023-03-17T09:25:31.237Z,101548.22
2023-03-17T09:30:33.985Z,101547.19
2023-03-17T09:35:36.516Z,101545.34
2023-03-17T09:40:57.111Z,101555.00
2023-03-17T09:46:17.264Z,101546.09
2023-03-17T09:51:20.083Z,101534.41
2023-03-17T09:56:24.100Z,101553.69
2023-03-17T10:01:29.926Z,101550.53
2023-03-17T10:06:39.028Z,101548.03
2023-03-17T10:11:46.094Z,101563.72
2023-03-17T10:17:01.586Z,101548.22
2023-03-17T10:22:27.348Z,101546.13
2023-03-17T10:27:34.915Z,101548.34
2023-03-17T10:32:41.174Z,101539.78
2023-03-17T10:37:46.364Z,101534.03
2023-03-17T10:42:53.835Z,101538.88
2023-03-17T10:47:58.528Z,101536.66
2023-03-17T10:53:05.005Z,101525.59
2023-03-17T10:58:15.624Z,101537.69
2023-03-17T11:03:31.310Z,101543.19
2023-03-17T11:08:36.286Z,101541.31
2023-03-17T11:13:38.610Z,101544.28
2023-03-17T11:18:43.273Z,101534.28
2023-03-17T11:23:56.565Z,101550.38
2023-03-17T11:29:27.718Z,101534.78
2023-03-17T11:34:35.351Z,101530.78
2023-03-17T11:40:02.973Z,101535.47
2023-03-17T11:45:33.624Z,101542.75
2023-03-17T11:50:44.513Z,101538.13
2023-03-17T11:55:53.231Z,101520.41
2023-03-17T12:01:00.452Z,101516.00
2023-03-17T12:06:07.458Z,101485.00
2023-03-17T12:11:15.356Z,101498.84
2023-03-17T12:16:34.844Z,101497.88
2023-03-17T12:21:45.726Z,101476.78
2023-03-17T12:27:07.598Z,101468.50
2023-03-17T12:32:38.142Z,101456.66
2023-03-17T12:37:43.525Z,101453.50
2023-03-17T12:42:54.547Z,101461.81
2023-03-17T12:48:34.075Z,101452.44
2023-03-17T12:53:56.514Z,101442.59
2023-03-17T12:59:30.041Z,101441.75
2023-03-17T13:04:56.775Z,101430.75
2023-03-17T13:10:01.315Z,101436.75
2023-03-17T13:15:03.811Z,101410.56
2023-03-17T13:20:08.713Z,101396.00
2023-03-17T13:25:33.600Z,101369.44
2023-03-17T13:30:36.527Z,101364.06
2023-03-17T13:36:16.548Z,101329.44
2023-03-17T13:41:32.025Z,101336.75
2023-03-17T13:46:44.224Z,101343.72
2023-03-17T13:52:00.339Z,101337.47
2023-03-17T13:57:22.785Z,101356.09
2023-03-17T14:02:27.916Z,101365.19
2023-03-17T14:07:49.601Z,101384.63
2023-03-17T14:13:07.938Z,101382.63
2023-03-17T14:18:16.539Z,101385.03
2023-03-17T14:23:18.731Z,101379.50
2023-03-17T14:28:34.624Z,101372.16
2023-03-17T14:33:38.812Z,101377.06
2023-03-17T14:38:50.683Z,101380.63
2023-03-17T14:44:00.101Z,101370.47
2023-03-17T14:49:16.431Z,101366.03
2023-03-17T14:54:25.699Z,101358.38
2023-03-17T14:59:41.122Z,101349.59
2023-03-17T15:05:01.277Z,101354.56
2023-03-17T15:10:18.108Z,101345.63
2023-03-17T15:15:25.896Z,101338.97
2023-03-17T15:20:31.584Z,101328.53
2023-03-17T15:25:35.214Z,101339.16
2023-03-17T15:30:47.438Z,101327.78
2023-03-17T15:36:02.968Z,101324.06
2023-03-17T15:41:05.076Z,101315.88
2023-03-17T15:46:20.312Z,101332.53
2023-03-17T15:51:22.617Z,101339.03
2023-03-17T15:56:27.295Z,101337.84
2023-03-17T16:01:31.720Z,101319.16
2023-03-17T16:06:35.006Z,101311.69
2023-03-17T16:11:38.832Z,101325.66
2023-03-17T16:16:45.943Z,101312.84
2023-03-17T16:21:48.389Z,101312.94
2023-03-17T16:26:50.974Z,101317.69
2023-03-17T16:31:53.131Z,101310.50
2023-03-17T16:36:56.463Z,101316.00
2023-03-17T16:41:59.676Z,101321.03
2023-03-17T16:47:02.207Z,101319.13
2023-03-17T16:52:08.396Z,101325.91
2023-03-17T16:57:12.924Z,101315.88
2023-03-17T17:02:17.892Z,101326.44
2023-03-17T17:07:19.934Z,101328.72
2023-03-17T17:12:21.723Z,101325.19
2023-03-17T17:17:23.943Z,101324.88
2023-03-17T17:22:26.178Z,101320.50
2023-03-17T17:27:28.268Z,101336.25
2023-03-17T17:32:30.227Z,101323.88
2023-03-17T17:37:35.411Z,101331.56
2023-03-17T17:42:37.713Z,101332.72
2023-03-17T17:47:43.349Z,101329.97
2023-03-17T17:52:54.142Z,101330.53
2023-03-17T17:57:56.583Z,101327.28
2023-03-17T18:02:59.179Z,101322.41
2023-03-17T18:08:02.524Z,101316.97
2023-03-17T18:13:07.212Z,101322.97
2023-03-17T18:18:09.875Z,101319.69
2023-03-17T18:23:12.264Z,101323.56
2023-03-17T18:28:14.242Z,101323.03
2023-03-17T18:33:17.708Z,101319.75
2023-03-17T18:38:19.683Z,101310.41
2023-03-17T18:43:22.378Z,101322.50
2023-03-17T18:48:24.440Z,101329.66
2023-03-17T18:53:27.589Z,101338.44
2023-03-17T18:58:29.730Z,101346.13
2023-03-17T19:03:35.876Z,101356.56
2023-03-17T19:08:39.958Z,101354.34
2023-03-17T19:13:52.531Z,101358.19
2023-03-17T19:18:56.490Z,101358.19
2023-03-17T19:24:00.880Z,101365.03
2023-03-17T19:29:03.174Z,101360.38
2023-03-17T19:34:05.368Z,101362.00
2023-03-17T19:39:11.078Z,101358.72
2023-03-17T19:44:13.131Z,101365.84
2023-03-17T19:49:20.111Z,101360.91
2023-03-17T19:54:23.388Z,101353.78
2023-03-17T19:59:25.663Z,101379.31
2023-03-17T20:04:27.664Z,101373.56
2023-03-17T20:09:31.055Z,101379.06
2023-03-17T20:14:34.702Z,101379.88
2023-03-17T20:19:39.473Z,101381.50
2023-03-17T20:24:42.476Z,101382.88
2023-03-17T20:29:48.181Z,101375.50
2023-03-17T20:34:50.844Z,101374.97
2023-03-17T20:39:54.894Z,101385.94
2023-03-17T20:45:03.400Z,101382.66
2023-03-17T20:50:08.663Z,101366.50
2023-03-17T20:55:14.764Z,101374.72
2023-03-17T21:00:24.800Z,101373.09
2023-03-17T21:05:27.772Z,101359.38
2023-03-17T21:10:30.058Z,101350.59
2023-03-17T21:15:32.388Z,101349.47
2023-03-17T21:20:34.311Z,101327.53
2023-03-17T21:25:37.175Z,101345.34
2023-03-17T21:30:43.108Z,101331.91
2023-03-17T21:35:45.456Z,101329.16
2023-03-17T21:40:47.598Z,101320.66
2023-03-17T21:45:50.673Z,101333.00
2023-03-17T21:50:53.518Z,101331.34
2023-03-17T21:55:55.587Z,101341.75
2023-03-17T22:00:57.629Z,101344.50
2023-03-17T22:05:59.805Z,101341.22
2023-03-17T22:11:10.193Z,101350.53
2023-03-17T22:16:16.628Z,101348.34
2023-03-17T22:21:20.863Z,101346.13
2023-03-17T22:26:23.060Z,101343.38
2023-03-17T22:31:26.498Z,101338.44
2023-03-17T22:36:30.259Z,101327.47
2023-03-17T22:41:32.565Z,101318.69
2023-03-17T22:46:35.359Z,101323.06
2023-03-17T22:51:38.219Z,101304.13
2023-03-17T22:56:40.228Z,101308.28
2023-03-17T23:01:43.003Z,101302.25
2023-03-17T23:06:45.228Z,101317.09
2023-03-17T23:11:47.386Z,101317.09
2023-03-17T23:16:49.340Z,101306.16
2023-03-17T23:21:51.365Z,101299.56
2023-03-17T23:26:53.529Z,101290.81
2023-03-17T23:31:55.420Z,101308.63
2023-03-17T23:36:57.381Z,101287.50
2023-03-17T23:41:59.469Z,101293.53
2023-03-17T23:47:02.382Z,101300.38
2023-03-17T23:52:07.272Z,101290.22
2023-03-17T23:57:09.307Z,101283.94
